sensor_id;sensor_type;location;lat;lon;timestamp;P1;durP1;ratioP1;P2;durP2;ratioP2
16426;SDS011;8322;-33.900;151.170;2022-12-24T00:01:50;3.38;;;1.80;;
16426;SDS011;8322;-33.900;151.170;2022-12-24T00:04:19;3.65;;;1.70;;
16426;SDS011;8322;-33.900;151.170;2022-12-24T00:06:51;2.28;;;1.50;;
16426;SDS011;8322;-33.900;151.170;2022-12-24T00:09:20;2.03;;;1.52;;
16426;SDS011;8322;-33.900;151.170;2022-12-24T00:11:50;2.00;;;1.40;;
16426;SDS011;8322;-33.900;151.170;2022-12-24T00:14:19;1.83;;;1.15;;
16426;SDS011;8322;-33.900;151.170;2022-12-24T00:16:49;3.35;;;1.50;;
16426;SDS011;8322;-33.900;151.170;2022-12-24T00:19:19;1.77;;;1.33;;
16426;SDS011;8322;-33.900;151.170;2022-12-24T00:21:50;1.80;;;1.40;;
16426;SDS011;8322;-33.900;151.170;2022-12-24T00:24:20;2.75;;;1.60;;
16426;SDS011;8322;-33.900;151.170;2022-12-24T00:26:49;3.47;;;2.00;;
16426;SDS011;8322;-33.900;151.170;2022-12-24T00:29:19;1.63;;;1.20;;
16426;SDS011;8322;-33.900;151.170;2022-12-24T00:31:48;1.85;;;1.20;;
16426;SDS011;8322;-33.900;151.170;2022-12-24T00:34:18;1.83;;;1.40;;
16426;SDS011;8322;-33.900;151.170;2022-12-24T00:36:48;3.22;;;1.55;;
16426;SDS011;8322;-33.900;151.170;2022-12-24T00:39:19;4.03;;;2.17;;
16426;SDS011;8322;-33.900;151.170;2022-12-24T00:41:49;5.95;;;2.55;;
16426;SDS011;8322;-33.900;151.170;2022-12-24T00:44:18;5.47;;;2.50;;
16426;SDS011;8322;-33.900;151.170;2022-12-24T00:46:48;5.50;;;2.60;;
16426;SDS011;8322;-33.900;151.170;2022-12-24T00:49:18;3.20;;;2.10;;
16426;SDS011;8322;-33.900;151.170;2022-12-24T00:51:47;4.20;;;2.40;;
16426;SDS011;8322;-33.900;151.170;2022-12-24T00:54:17;4.25;;;2.58;;
16426;SDS011;8322;-33.900;151.170;2022-12-24T00:56:48;4.45;;;3.88;;
16426;SDS011;8322;-33.900;151.170;2022-12-24T00:59:18;7.07;;;2.88;;
16426;SDS011;8322;-33.900;151.170;2022-12-24T01:01:47;5.78;;;2.92;;
16426;SDS011;8322;-33.900;151.170;2022-12-24T01:04:17;5.00;;;2.63;;
16426;SDS011;8322;-33.900;151.170;2022-12-24T01:07:11;5.38;;;2.80;;
16426;SDS011;8322;-33.900;151.170;2022-12-24T01:09:41;5.57;;;2.65;;
16426;SDS011;8322;-33.900;151.170;2022-12-24T01:12:12;4.03;;;2.58;;
16426;SDS011;8322;-33.900;151.170;2022-12-24T01:14:42;5.72;;;2.60;;
16426;SDS011;8322;-33.900;151.170;2022-12-24T01:17:12;4.25;;;2.75;;
16426;SDS011;8322;-33.900;151.170;2022-12-24T01:19:41;4.53;;;2.67;;
16426;SDS011;8322;-33.900;151.170;2022-12-24T01:22:11;3.30;;;2.42;;
16426;SDS011;8322;-33.900;151.170;2022-12-24T01:24:41;5.63;;;3.38;;
16426;SDS011;8322;-33.900;151.170;2022-12-24T01:27:13;3.33;;;3.03;;
16426;SDS011;8322;-33.900;151.170;2022-12-24T01:29:42;5.38;;;2.75;;
16426;SDS011;8322;-33.900;151.170;2022-12-24T01:32:12;5.40;;;3.10;;
16426;SDS011;8322;-33.900;151.170;2022-12-24T01:34:42;3.53;;;2.20;;
16426;SDS011;8322;-33.900;151.170;2022-12-24T01:37:11;3.88;;;2.28;;
16426;SDS011;8322;-33.900;151.170;2022-12-24T01:39:41;3.33;;;2.30;;
16426;SDS011;8322;-33.900;151.170;2022-12-24T01:42:18;4.47;;;2.90;;
16426;SDS011;8322;-33.900;151.170;2022-12-24T01:47:51;3.88;;;2.38;;
16426;SDS011;8322;-33.900;151.170;2022-12-24T01:50:21;6.82;;;2.35;;
16426;SDS011;8322;-33.900;151.170;2022-12-24T01:52:51;4.70;;;2.40;;
16426;SDS011;8322;-33.900;151.170;2022-12-24T01:55:21;4.68;;;2.63;;
16426;SDS011;8322;-33.900;151.170;2022-12-24T01:57:54;6.57;;;2.33;;
16426;SDS011;8322;-33.900;151.170;2022-12-24T02:00:25;6.70;;;4.43;;
16426;SDS011;8322;-33.900;151.170;2022-12-24T02:02:58;8.10;;;2.60;;
16426;SDS011;8322;-33.900;151.170;2022-12-24T02:05:28;5.78;;;2.80;;
16426;SDS011;8322;-33.900;151.170;2022-12-24T02:07:59;13.25;;;3.55;;
16426;SDS011;8322;-33.900;151.170;2022-12-24T02:10:31;5.18;;;2.83;;
16426;SDS011;8322;-33.900;151.170;2022-12-24T02:13:03;12.95;;;3.50;;
16426;SDS011;8322;-33.900;151.170;2022-12-24T02:15:35;4.90;;;3.00;;
16426;SDS011;8322;-33.900;151.170;2022-12-24T02:18:10;6.97;;;3.10;;
16426;SDS011;8322;-33.900;151.170;2022-12-24T02:20:48;5.53;;;3.00;;
16426;SDS011;8322;-33.900;151.170;2022-12-24T02:23:37;6.20;;;3.10;;
16426;SDS011;8322;-33.900;151.170;2022-12-24T02:26:17;6.00;;;2.80;;
16426;SDS011;8322;-33.900;151.170;2022-12-24T02:28:59;5.97;;;3.20;;
16426;SDS011;8322;-33.900;151.170;2022-12-24T02:31:36;5.65;;;3.47;;
16426;SDS011;8322;-33.900;151.170;2022-12-24T02:34:07;3.88;;;3.13;;
16426;SDS011;8322;-33.900;151.170;2022-12-24T02:36:39;5.25;;;2.72;;
16426;SDS011;8322;-33.900;151.170;2022-12-24T02:39:10;2.80;;;2.40;;
16426;SDS011;8322;-33.900;151.170;2022-12-24T02:41:41;5.03;;;2.35;;
16426;SDS011;8322;-33.900;151.170;2022-12-24T02:44:42;4.10;;;2.55;;
16426;SDS011;8322;-33.900;151.170;2022-12-24T02:47:14;4.50;;;2.67;;
16426;SDS011;8322;-33.900;151.170;2022-12-24T02:49:46;4.80;;;2.83;;
16426;SDS011;8322;-33.900;151.170;2022-12-24T02:52:29;6.53;;;3.97;;
16426;SDS011;8322;-33.900;151.170;2022-12-24T02:55:00;4.68;;;2.88;;
16426;SDS011;8322;-33.900;151.170;2022-12-24T02:57:33;3.72;;;2.20;;
16426;SDS011;8322;-33.900;151.170;2022-12-24T03:00:07;5.78;;;2.70;;
16426;SDS011;8322;-33.900;151.170;2022-12-24T03:02:43;3.28;;;2.55;;
16426;SDS011;8322;-33.900;151.170;2022-12-24T03:05:17;4.18;;;2.75;;
16426;SDS011;8322;-33.900;151.170;2022-12-24T03:07:51;4.93;;;2.72;;
16426;SDS011;8322;-33.900;151.170;2022-12-24T03:10:23;5.25;;;2.30;;
16426;SDS011;8322;-33.900;151.170;2022-12-24T03:12:55;4.45;;;2.20;;
16426;SDS011;8322;-33.900;151.170;2022-12-24T03:15:26;2.40;;;2.10;;
16426;SDS011;8322;-33.900;151.170;2022-12-24T03:17:58;4.40;;;2.38;;
16426;SDS011;8322;-33.900;151.170;2022-12-24T03:20:30;4.97;;;2.10;;
16426;SDS011;8322;-33.900;151.170;2022-12-24T03:23:00;3.40;;;2.10;;
16426;SDS011;8322;-33.900;151.170;2022-12-24T03:25:30;3.83;;;2.30;;
16426;SDS011;8322;-33.900;151.170;2022-12-24T03:28:01;4.25;;;2.13;;
16426;SDS011;8322;-33.900;151.170;2022-12-24T03:30:31;3.92;;;2.15;;
16426;SDS011;8322;-33.900;151.170;2022-12-24T03:33:02;4.68;;;2.40;;
16426;SDS011;8322;-33.900;151.170;2022-12-24T03:35:32;4.40;;;2.50;;
16426;SDS011;8322;-33.900;151.170;2022-12-24T03:38:01;3.85;;;2.10;;
16426;SDS011;8322;-33.900;151.170;2022-12-24T03:40:30;3.83;;;2.33;;
16426;SDS011;8322;-33.900;151.170;2022-12-24T03:43:00;2.38;;;1.92;;
16426;SDS011;8322;-33.900;151.170;2022-12-24T03:45:29;3.33;;;2.00;;
16426;SDS011;8322;-33.900;151.170;2022-12-24T03:47:59;3.75;;;1.90;;
16426;SDS011;8322;-33.900;151.170;2022-12-24T03:50:30;3.20;;;1.80;;
16426;SDS011;8322;-33.900;151.170;2022-12-24T03:52:59;3.15;;;2.13;;
16426;SDS011;8322;-33.900;151.170;2022-12-24T03:55:29;3.88;;;2.50;;
16426;SDS011;8322;-33.900;151.170;2022-12-24T03:57:58;6.18;;;2.20;;
16426;SDS011;8322;-33.900;151.170;2022-12-24T04:00:28;4.22;;;2.40;;
16426;SDS011;8322;-33.900;151.170;2022-12-24T04:02:57;4.05;;;2.13;;
16426;SDS011;8322;-33.900;151.170;2022-12-24T04:05:26;3.47;;;2.30;;
16426;SDS011;8322;-33.900;151.170;2022-12-24T04:07:58;2.80;;;1.88;;
16426;SDS011;8322;-33.900;151.170;2022-12-24T04:10:27;2.45;;;2.08;;
16426;SDS011;8322;-33.900;151.170;2022-12-24T04:12:57;3.17;;;1.90;;
16426;SDS011;8322;-33.900;151.170;2022-12-24T04:15:26;3.70;;;2.13;;
16426;SDS011;8322;-33.900;151.170;2022-12-24T04:17:56;3.92;;;1.52;;
16426;SDS011;8322;-33.900;151.170;2022-12-24T04:20:25;3.88;;;1.90;;
16426;SDS011;8322;-33.900;151.170;2022-12-24T04:22:54;3.85;;;2.00;;
16426;SDS011;8322;-33.900;151.170;2022-12-24T04:25:26;4.68;;;2.55;;
16426;SDS011;8322;-33.900;151.170;2022-12-24T04:27:55;3.25;;;2.20;;
16426;SDS011;8322;-33.900;151.170;2022-12-24T04:30:24;5.07;;;2.30;;
16426;SDS011;8322;-33.900;151.170;2022-12-24T04:32:54;3.75;;;2.00;;
16426;SDS011;8322;-33.900;151.170;2022-12-24T04:35:24;3.03;;;1.65;;
16426;SDS011;8322;-33.900;151.170;2022-12-24T04:37:53;3.28;;;1.85;;
16426;SDS011;8322;-33.900;151.170;2022-12-24T04:40:22;4.88;;;1.80;;
16426;SDS011;8322;-33.900;151.170;2022-12-24T04:42:54;5.95;;;2.80;;
16426;SDS011;8322;-33.900;151.170;2022-12-24T04:45:23;3.45;;;1.92;;
16426;SDS011;8322;-33.900;151.170;2022-12-24T04:47:53;2.88;;;2.13;;
16426;SDS011;8322;-33.900;151.170;2022-12-24T04:50:22;4.22;;;1.98;;
16426;SDS011;8322;-33.900;151.170;2022-12-24T04:52:52;3.03;;;1.60;;
16426;SDS011;8322;-33.900;151.170;2022-12-24T04:55:21;3.28;;;1.70;;
16426;SDS011;8322;-33.900;151.170;2022-12-24T04:57:50;2.60;;;1.50;;
16426;SDS011;8322;-33.900;151.170;2022-12-24T05:00:22;1.88;;;1.42;;
16426;SDS011;8322;-33.900;151.170;2022-12-24T05:02:51;4.30;;;1.30;;
16426;SDS011;8322;-33.900;151.170;2022-12-24T05:05:21;4.30;;;1.65;;
16426;SDS011;8322;-33.900;151.170;2022-12-24T05:07:50;2.70;;;1.70;;
16426;SDS011;8322;-33.900;151.170;2022-12-24T05:10:19;2.80;;;1.70;;
16426;SDS011;8322;-33.900;151.170;2022-12-24T05:12:49;2.05;;;1.40;;
16426;SDS011;8322;-33.900;151.170;2022-12-24T05:15:18;5.53;;;1.65;;
16426;SDS011;8322;-33.900;151.170;2022-12-24T05:17:49;4.80;;;1.52;;
16426;SDS011;8322;-33.900;151.170;2022-12-24T05:20:19;3.22;;;1.98;;
16426;SDS011;8322;-33.900;151.170;2022-12-24T05:22:48;3.13;;;1.70;;
16426;SDS011;8322;-33.900;151.170;2022-12-24T05:25:35;5.30;;;4.05;;
16426;SDS011;8322;-33.900;151.170;2022-12-24T05:28:22;3.65;;;1.88;;
16426;SDS011;8322;-33.900;151.170;2022-12-24T05:30:52;2.88;;;1.55;;
16426;SDS011;8322;-33.900;151.170;2022-12-24T05:33:23;2.58;;;1.40;;
16426;SDS011;8322;-33.900;151.170;2022-12-24T05:35:52;4.75;;;1.35;;
16426;SDS011;8322;-33.900;151.170;2022-12-24T05:38:22;4.65;;;1.40;;
16426;SDS011;8322;-33.900;151.170;2022-12-24T05:40:51;4.00;;;1.58;;
16426;SDS011;8322;-33.900;151.170;2022-12-24T05:43:20;2.95;;;1.50;;
16426;SDS011;8322;-33.900;151.170;2022-12-24T05:45:50;4.25;;;1.38;;
16426;SDS011;8322;-33.900;151.170;2022-12-24T05:48:20;2.60;;;1.33;;
16426;SDS011;8322;-33.900;151.170;2022-12-24T05:50:51;3.40;;;1.30;;
16426;SDS011;8322;-33.900;151.170;2022-12-24T05:53:20;4.28;;;1.70;;
16426;SDS011;8322;-33.900;151.170;2022-12-24T05:55:50;4.07;;;2.50;;
16426;SDS011;8322;-33.900;151.170;2022-12-24T05:58:19;4.03;;;1.98;;
16426;SDS011;8322;-33.900;151.170;2022-12-24T06:00:51;1.92;;;1.20;;
16426;SDS011;8322;-33.900;151.170;2022-12-24T06:03:21;2.30;;;1.30;;
16426;SDS011;8322;-33.900;151.170;2022-12-24T06:05:58;2.47;;;1.50;;
16426;SDS011;8322;-33.900;151.170;2022-12-24T06:08:31;1.60;;;1.05;;
16426;SDS011;8322;-33.900;151.170;2022-12-24T06:11:02;1.55;;;1.20;;
16426;SDS011;8322;-33.900;151.170;2022-12-24T06:13:32;2.38;;;1.40;;
16426;SDS011;8322;-33.900;151.170;2022-12-24T06:16:02;3.22;;;1.55;;
16426;SDS011;8322;-33.900;151.170;2022-12-24T06:18:32;2.13;;;1.50;;
16426;SDS011;8322;-33.900;151.170;2022-12-24T06:21:04;3.17;;;1.58;;
16426;SDS011;8322;-33.900;151.170;2022-12-24T06:23:34;3.92;;;1.20;;
16426;SDS011;8322;-33.900;151.170;2022-12-24T06:26:04;4.43;;;1.30;;
16426;SDS011;8322;-33.900;151.170;2022-12-24T06:28:35;3.53;;;1.38;;
16426;SDS011;8322;-33.900;151.170;2022-12-24T06:31:05;4.43;;;1.83;;
16426;SDS011;8322;-33.900;151.170;2022-12-24T06:33:35;4.55;;;2.17;;
16426;SDS011;8322;-33.900;151.170;2022-12-24T06:36:07;2.47;;;1.10;;
16426;SDS011;8322;-33.900;151.170;2022-12-24T06:38:37;4.10;;;1.60;;
16426;SDS011;8322;-33.900;151.170;2022-12-24T06:41:06;3.30;;;1.25;;
16426;SDS011;8322;-33.900;151.170;2022-12-24T06:43:36;5.25;;;2.60;;
16426;SDS011;8322;-33.900;151.170;2022-12-24T06:46:06;2.88;;;1.35;;
16426;SDS011;8322;-33.900;151.170;2022-12-24T06:48:35;4.30;;;1.65;;
16426;SDS011;8322;-33.900;151.170;2022-12-24T06:51:07;2.10;;;1.20;;
16426;SDS011;8322;-33.900;151.170;2022-12-24T06:53:36;2.25;;;1.30;;
16426;SDS011;8322;-33.900;151.170;2022-12-24T06:56:06;3.95;;;1.90;;
16426;SDS011;8322;-33.900;151.170;2022-12-24T06:58:36;1.92;;;1.30;;
16426;SDS011;8322;-33.900;151.170;2022-12-24T07:01:06;5.57;;;2.00;;
16426;SDS011;8322;-33.900;151.170;2022-12-24T07:03:35;2.67;;;1.48;;
16426;SDS011;8322;-33.900;151.170;2022-12-24T07:06:07;2.40;;;1.20;;
16426;SDS011;8322;-33.900;151.170;2022-12-24T07:08:39;7.75;;;5.15;;
16426;SDS011;8322;-33.900;151.170;2022-12-24T07:11:08;6.28;;;4.05;;
16426;SDS011;8322;-33.900;151.170;2022-12-24T07:13:38;5.53;;;3.00;;
16426;SDS011;8322;-33.900;151.170;2022-12-24T07:16:07;3.83;;;1.30;;
16426;SDS011;8322;-33.900;151.170;2022-12-24T07:18:37;2.63;;;1.10;;
16426;SDS011;8322;-33.900;151.170;2022-12-24T07:21:08;2.05;;;1.17;;
16426;SDS011;8322;-33.900;151.170;2022-12-24T07:23:37;3.50;;;1.70;;
16426;SDS011;8322;-33.900;151.170;2022-12-24T07:26:07;6.55;;;1.95;;
16426;SDS011;8322;-33.900;151.170;2022-12-24T07:28:36;3.25;;;1.70;;
16426;SDS011;8322;-33.900;151.170;2022-12-24T07:31:06;4.97;;;2.10;;
16426;SDS011;8322;-33.900;151.170;2022-12-24T07:33:35;4.95;;;1.98;;
16426;SDS011;8322;-33.900;151.170;2022-12-24T07:36:05;3.65;;;2.00;;
16426;SDS011;8322;-33.900;151.170;2022-12-24T07:38:37;5.18;;;2.13;;
16426;SDS011;8322;-33.900;151.170;2022-12-24T07:41:06;6.07;;;2.63;;
16426;SDS011;8322;-33.900;151.170;2022-12-24T07:43:35;4.90;;;3.03;;
16426;SDS011;8322;-33.900;151.170;2022-12-24T07:46:05;9.13;;;2.80;;
16426;SDS011;8322;-33.900;151.170;2022-12-24T07:48:34;10.10;;;3.75;;
16426;SDS011;8322;-33.900;151.170;2022-12-24T07:51:04;10.27;;;3.83;;
16426;SDS011;8322;-33.900;151.170;2022-12-24T07:53:33;7.43;;;4.53;;
16426;SDS011;8322;-33.900;151.170;2022-12-24T07:56:05;6.78;;;3.65;;
16426;SDS011;8322;-33.900;151.170;2022-12-24T07:58:34;5.38;;;3.53;;
16426;SDS011;8322;-33.900;151.170;2022-12-24T08:01:04;9.23;;;4.20;;
16426;SDS011;8322;-33.900;151.170;2022-12-24T08:03:33;6.57;;;3.42;;
16426;SDS011;8322;-33.900;151.170;2022-12-24T08:06:02;10.18;;;3.67;;
16426;SDS011;8322;-33.900;151.170;2022-12-24T08:08:32;10.35;;;4.03;;
16426;SDS011;8322;-33.900;151.170;2022-12-24T08:11:02;4.45;;;2.22;;
16426;SDS011;8322;-33.900;151.170;2022-12-24T08:13:33;3.45;;;2.10;;
16426;SDS011;8322;-33.900;151.170;2022-12-24T08:16:03;7.65;;;4.68;;
16426;SDS011;8322;-33.900;151.170;2022-12-24T08:18:33;6.75;;;3.58;;
16426;SDS011;8322;-33.900;151.170;2022-12-24T08:21:05;8.77;;;4.40;;
16426;SDS011;8322;-33.900;151.170;2022-12-24T08:23:35;7.32;;;3.50;;
16426;SDS011;8322;-33.900;151.170;2022-12-24T08:26:05;5.28;;;2.83;;
16426;SDS011;8322;-33.900;151.170;2022-12-24T08:28:37;5.20;;;2.80;;
16426;SDS011;8322;-33.900;151.170;2022-12-24T08:31:06;7.47;;;3.10;;
16426;SDS011;8322;-33.900;151.170;2022-12-24T08:33:36;6.28;;;2.38;;
16426;SDS011;8322;-33.900;151.170;2022-12-24T08:36:06;5.65;;;3.15;;
16426;SDS011;8322;-33.900;151.170;2022-12-24T08:38:35;7.50;;;4.20;;
16426;SDS011;8322;-33.900;151.170;2022-12-24T08:41:05;7.55;;;3.50;;
16426;SDS011;8322;-33.900;151.170;2022-12-24T08:43:34;6.25;;;3.20;;
16426;SDS011;8322;-33.900;151.170;2022-12-24T08:46:05;5.65;;;2.95;;
16426;SDS011;8322;-33.900;151.170;2022-12-24T08:48:35;8.02;;;3.95;;
16426;SDS011;8322;-33.900;151.170;2022-12-24T08:51:08;11.15;;;5.13;;
16426;SDS011;8322;-33.900;151.170;2022-12-24T08:53:37;9.43;;;4.80;;
16426;SDS011;8322;-33.900;151.170;2022-12-24T08:56:07;7.25;;;3.83;;
16426;SDS011;8322;-33.900;151.170;2022-12-24T08:58:37;8.48;;;5.10;;
16426;SDS011;8322;-33.900;151.170;2022-12-24T09:01:12;8.15;;;3.97;;
16426;SDS011;8322;-33.900;151.170;2022-12-24T09:03:42;9.13;;;4.03;;
16426;SDS011;8322;-33.900;151.170;2022-12-24T09:06:11;6.60;;;3.67;;
16426;SDS011;8322;-33.900;151.170;2022-12-24T09:08:41;7.97;;;3.40;;
16426;SDS011;8322;-33.900;151.170;2022-12-24T09:11:11;6.15;;;3.50;;
16426;SDS011;8322;-33.900;151.170;2022-12-24T09:13:41;7.05;;;4.40;;
16426;SDS011;8322;-33.900;151.170;2022-12-24T09:16:13;4.18;;;2.67;;
16426;SDS011;8322;-33.900;151.170;2022-12-24T09:18:43;5.88;;;4.00;;
16426;SDS011;8322;-33.900;151.170;2022-12-24T09:21:12;10.05;;;5.38;;
16426;SDS011;8322;-33.900;151.170;2022-12-24T09:23:42;6.32;;;3.13;;
16426;SDS011;8322;-33.900;151.170;2022-12-24T09:26:12;4.53;;;2.72;;
16426;SDS011;8322;-33.900;151.170;2022-12-24T09:28:42;5.95;;;4.07;;
16426;SDS011;8322;-33.900;151.170;2022-12-24T09:31:13;8.35;;;4.88;;
16426;SDS011;8322;-33.900;151.170;2022-12-24T09:33:43;10.15;;;4.05;;
16426;SDS011;8322;-33.900;151.170;2022-12-24T09:36:13;7.63;;;3.75;;
16426;SDS011;8322;-33.900;151.170;2022-12-24T09:38:43;4.78;;;2.60;;
16426;SDS011;8322;-33.900;151.170;2022-12-24T09:41:12;5.57;;;4.05;;
16426;SDS011;8322;-33.900;151.170;2022-12-24T09:43:44;7.13;;;3.25;;
16426;SDS011;8322;-33.900;151.170;2022-12-24T09:46:19;6.72;;;4.00;;
16426;SDS011;8322;-33.900;151.170;2022-12-24T09:48:51;5.20;;;3.55;;
16426;SDS011;8322;-33.900;151.170;2022-12-24T09:51:23;4.68;;;3.08;;
16426;SDS011;8322;-33.900;151.170;2022-12-24T09:53:54;7.07;;;3.25;;
16426;SDS011;8322;-33.900;151.170;2022-12-24T09:56:25;8.13;;;2.83;;
16426;SDS011;8322;-33.900;151.170;2022-12-24T09:58:56;5.97;;;3.13;;
16426;SDS011;8322;-33.900;151.170;2022-12-24T10:01:29;5.75;;;3.00;;
16426;SDS011;8322;-33.900;151.170;2022-12-24T10:04:00;6.35;;;2.83;;
16426;SDS011;8322;-33.900;151.170;2022-12-24T10:06:32;6.40;;;2.83;;
16426;SDS011;8322;-33.900;151.170;2022-12-24T10:09:07;4.75;;;2.70;;
16426;SDS011;8322;-33.900;151.170;2022-12-24T10:11:42;4.70;;;2.92;;
16426;SDS011;8322;-33.900;151.170;2022-12-24T10:14:16;6.25;;;3.63;;
16426;SDS011;8322;-33.900;151.170;2022-12-24T10:16:57;4.95;;;3.30;;
16426;SDS011;8322;-33.900;151.170;2022-12-24T10:19:35;5.05;;;3.30;;
16426;SDS011;8322;-33.900;151.170;2022-12-24T10:22:07;6.72;;;3.33;;
16426;SDS011;8322;-33.900;151.170;2022-12-24T10:24:46;8.48;;;3.42;;
16426;SDS011;8322;-33.900;151.170;2022-12-24T10:27:20;7.15;;;3.97;;
16426;SDS011;8322;-33.900;151.170;2022-12-24T10:29:54;9.00;;;5.95;;
16426;SDS011;8322;-33.900;151.170;2022-12-24T10:32:27;7.07;;;5.32;;
16426;SDS011;8322;-33.900;151.170;2022-12-24T10:34:59;6.72;;;3.60;;
16426;SDS011;8322;-33.900;151.170;2022-12-24T10:37:29;6.25;;;3.20;;
16426;SDS011;8322;-33.900;151.170;2022-12-24T10:39:59;4.30;;;2.90;;
16426;SDS011;8322;-33.900;151.170;2022-12-24T10:42:31;4.22;;;2.58;;
16426;SDS011;8322;-33.900;151.170;2022-12-24T10:45:05;3.60;;;2.83;;
16426;SDS011;8322;-33.900;151.170;2022-12-24T10:47:37;4.68;;;2.85;;
16426;SDS011;8322;-33.900;151.170;2022-12-24T10:50:11;4.38;;;2.80;;
16426;SDS011;8322;-33.900;151.170;2022-12-24T10:52:41;3.92;;;2.78;;
16426;SDS011;8322;-33.900;151.170;2022-12-24T10:55:20;4.05;;;2.78;;
16426;SDS011;8322;-33.900;151.170;2022-12-24T10:57:59;5.18;;;2.95;;
16426;SDS011;8322;-33.900;151.170;2022-12-24T11:00:29;4.22;;;2.83;;
16426;SDS011;8322;-33.900;151.170;2022-12-24T11:03:15;5.38;;;3.38;;
16426;SDS011;8322;-33.900;151.170;2022-12-24T11:08:36;5.63;;;3.30;;
16426;SDS011;8322;-33.900;151.170;2022-12-24T11:11:07;4.15;;;2.60;;
16426;SDS011;8322;-33.900;151.170;2022-12-24T11:13:38;5.00;;;2.88;;
16426;SDS011;8322;-33.900;151.170;2022-12-24T11:16:13;3.30;;;2.55;;
16426;SDS011;8322;-33.900;151.170;2022-12-24T11:18:47;5.05;;;2.88;;
16426;SDS011;8322;-33.900;151.170;2022-12-24T11:21:21;6.90;;;2.70;;
16426;SDS011;8322;-33.900;151.170;2022-12-24T11:23:52;5.40;;;3.40;;
16426;SDS011;8322;-33.900;151.170;2022-12-24T11:26:23;4.80;;;3.08;;
16426;SDS011;8322;-33.900;151.170;2022-12-24T11:29:08;5.30;;;3.30;;
16426;SDS011;8322;-33.900;151.170;2022-12-24T11:31:40;4.93;;;2.83;;
16426;SDS011;8322;-33.900;151.170;2022-12-24T11:34:25;4.07;;;2.90;;
16426;SDS011;8322;-33.900;151.170;2022-12-24T11:37:05;9.05;;;3.20;;
16426;SDS011;8322;-33.900;151.170;2022-12-24T11:39:38;6.05;;;2.78;;
16426;SDS011;8322;-33.900;151.170;2022-12-24T11:42:12;9.82;;;3.83;;
16426;SDS011;8322;-33.900;151.170;2022-12-24T11:44:50;14.15;;;4.28;;
16426;SDS011;8322;-33.900;151.170;2022-12-24T11:47:23;12.35;;;3.70;;
16426;SDS011;8322;-33.900;151.170;2022-12-24T11:52:45;10.70;;;3.95;;
16426;SDS011;8322;-33.900;151.170;2022-12-24T11:55:18;8.18;;;3.97;;
16426;SDS011;8322;-33.900;151.170;2022-12-24T11:57:51;14.40;;;5.63;;
16426;SDS011;8322;-33.900;151.170;2022-12-24T12:00:21;11.57;;;4.68;;
16426;SDS011;8322;-33.900;151.170;2022-12-24T12:02:51;12.25;;;5.07;;
16426;SDS011;8322;-33.900;151.170;2022-12-24T12:05:23;12.90;;;5.28;;
16426;SDS011;8322;-33.900;151.170;2022-12-24T12:07:57;13.55;;;5.53;;
16426;SDS011;8322;-33.900;151.170;2022-12-24T12:10:29;12.18;;;5.43;;
16426;SDS011;8322;-33.900;151.170;2022-12-24T12:13:00;13.70;;;6.43;;
16426;SDS011;8322;-33.900;151.170;2022-12-24T12:15:32;9.05;;;5.15;;
16426;SDS011;8322;-33.900;151.170;2022-12-24T12:18:04;8.60;;;5.53;;
16426;SDS011;8322;-33.900;151.170;2022-12-24T12:20:37;8.85;;;5.30;;
16426;SDS011;8322;-33.900;151.170;2022-12-24T12:23:11;7.90;;;5.18;;
16426;SDS011;8322;-33.900;151.170;2022-12-24T12:25:43;8.45;;;4.95;;
16426;SDS011;8322;-33.900;151.170;2022-12-24T12:28:15;7.03;;;4.60;;
16426;SDS011;8322;-33.900;151.170;2022-12-24T12:30:46;6.88;;;5.18;;
16426;SDS011;8322;-33.900;151.170;2022-12-24T12:33:23;10.00;;;5.80;;
16426;SDS011;8322;-33.900;151.170;2022-12-24T12:35:54;9.85;;;6.05;;
16426;SDS011;8322;-33.900;151.170;2022-12-24T12:38:27;16.83;;;6.25;;
16426;SDS011;8322;-33.900;151.170;2022-12-24T12:41:09;14.45;;;6.68;;
16426;SDS011;8322;-33.900;151.170;2022-12-24T12:43:47;20.27;;;8.10;;
16426;SDS011;8322;-33.900;151.170;2022-12-24T12:46:22;15.45;;;7.65;;
16426;SDS011;8322;-33.900;151.170;2022-12-24T12:49:00;19.83;;;8.07;;
16426;SDS011;8322;-33.900;151.170;2022-12-24T12:51:33;18.30;;;7.78;;
16426;SDS011;8322;-33.900;151.170;2022-12-24T12:54:13;19.83;;;7.70;;
16426;SDS011;8322;-33.900;151.170;2022-12-24T12:56:45;17.55;;;7.43;;
16426;SDS011;8322;-33.900;151.170;2022-12-24T12:59:17;17.80;;;6.57;;
16426;SDS011;8322;-33.900;151.170;2022-12-24T13:01:49;18.13;;;6.82;;
16426;SDS011;8322;-33.900;151.170;2022-12-24T13:07:29;26.25;;;7.55;;
16426;SDS011;8322;-33.900;151.170;2022-12-24T13:10:20;17.27;;;7.30;;
16426;SDS011;8322;-33.900;151.170;2022-12-24T13:13:01;20.38;;;7.55;;
16426;SDS011;8322;-33.900;151.170;2022-12-24T13:15:45;20.70;;;8.00;;
16426;SDS011;8322;-33.900;151.170;2022-12-24T13:18:22;26.10;;;7.88;;
16426;SDS011;8322;-33.900;151.170;2022-12-24T13:20:57;21.23;;;7.93;;
16426;SDS011;8322;-33.900;151.170;2022-12-24T13:23:26;20.50;;;7.55;;
16426;SDS011;8322;-33.900;151.170;2022-12-24T13:25:58;18.65;;;7.18;;
16426;SDS011;8322;-33.900;151.170;2022-12-24T13:28:30;23.20;;;8.27;;
16426;SDS011;8322;-33.900;151.170;2022-12-24T13:33:49;21.95;;;8.00;;
16426;SDS011;8322;-33.900;151.170;2022-12-24T13:36:19;16.80;;;6.57;;
16426;SDS011;8322;-33.900;151.170;2022-12-24T13:38:49;18.05;;;6.75;;
16426;SDS011;8322;-33.900;151.170;2022-12-24T13:46:59;17.08;;;6.97;;
16426;SDS011;8322;-33.900;151.170;2022-12-24T13:49:31;16.05;;;6.80;;
16426;SDS011;8322;-33.900;151.170;2022-12-24T13:54:46;18.08;;;5.88;;
16426;SDS011;8322;-33.900;151.170;2022-12-24T13:57:25;22.02;;;7.03;;
16426;SDS011;8322;-33.900;151.170;2022-12-24T13:59:56;18.77;;;7.00;;
16426;SDS011;8322;-33.900;151.170;2022-12-24T14:02:31;18.63;;;6.70;;
16426;SDS011;8322;-33.900;151.170;2022-12-24T14:05:02;22.73;;;6.65;;
16426;SDS011;8322;-33.900;151.170;2022-12-24T14:07:33;18.70;;;6.40;;
16426;SDS011;8322;-33.900;151.170;2022-12-24T14:10:03;13.63;;;6.22;;
16426;SDS011;8322;-33.900;151.170;2022-12-24T14:12:46;18.73;;;6.30;;
16426;SDS011;8322;-33.900;151.170;2022-12-24T14:18:04;19.98;;;6.15;;
16426;SDS011;8322;-33.900;151.170;2022-12-24T14:20:34;16.70;;;5.45;;
16426;SDS011;8322;-33.900;151.170;2022-12-24T14:23:04;16.52;;;5.93;;
16426;SDS011;8322;-33.900;151.170;2022-12-24T14:25:34;16.65;;;5.68;;
16426;SDS011;8322;-33.900;151.170;2022-12-24T14:28:04;16.55;;;5.60;;
16426;SDS011;8322;-33.900;151.170;2022-12-24T14:30:33;16.73;;;5.70;;
16426;SDS011;8322;-33.900;151.170;2022-12-24T14:33:05;21.02;;;5.80;;
16426;SDS011;8322;-33.900;151.170;2022-12-24T14:35:34;17.20;;;5.97;;
16426;SDS011;8322;-33.900;151.170;2022-12-24T14:38:05;19.00;;;5.03;;
16426;SDS011;8322;-33.900;151.170;2022-12-24T14:40:36;17.33;;;5.80;;
16426;SDS011;8322;-33.900;151.170;2022-12-24T14:43:10;19.67;;;5.72;;
16426;SDS011;8322;-33.900;151.170;2022-12-24T14:45:43;17.08;;;4.90;;
16426;SDS011;8322;-33.900;151.170;2022-12-24T14:48:18;17.38;;;5.00;;
16426;SDS011;8322;-33.900;151.170;2022-12-24T14:50:53;18.77;;;5.28;;
16426;SDS011;8322;-33.900;151.170;2022-12-24T14:53:27;18.17;;;5.05;;
16426;SDS011;8322;-33.900;151.170;2022-12-24T14:55:58;17.90;;;5.47;;
16426;SDS011;8322;-33.900;151.170;2022-12-24T14:58:37;21.10;;;5.47;;
16426;SDS011;8322;-33.900;151.170;2022-12-24T15:01:17;14.32;;;5.00;;
16426;SDS011;8322;-33.900;151.170;2022-12-24T15:04:00;13.18;;;4.97;;
16426;SDS011;8322;-33.900;151.170;2022-12-24T15:06:33;19.90;;;5.53;;
16426;SDS011;8322;-33.900;151.170;2022-12-24T15:09:03;13.55;;;5.25;;
16426;SDS011;8322;-33.900;151.170;2022-12-24T15:11:32;16.80;;;5.07;;